createdAt,value
2023-02-06T00:02:56.629Z,0.00
2023-02-06T00:07:56.582Z,0.00
2023-02-06T00:12:56.480Z,0.00
2023-02-06T00:17:56.430Z,0.00
2023-02-06T00:22:56.349Z,0.00
2023-02-06T00:27:56.262Z,0.00
2023-02-06T00:32:56.249Z,0.00
2023-02-06T00:37:56.199Z,0.00
2023-02-06T00:42:56.084Z,0.00
2023-02-06T00:47:56.038Z,0.00
2023-02-06T00:52:56.006Z,0.00
2023-02-06T00:57:56.016Z,0.00
2023-02-06T01:02:55.860Z,0.00
2023-02-06T01:07:55.768Z,0.00
2023-02-06T01:12:55.724Z,0.00
2023-02-06T01:17:55.710Z,0.00
2023-02-06T01:22:55.583Z,0.00
2023-02-06T01:27:55.580Z,0.00
2023-02-06T01:32:55.425Z,0.00
2023-02-06T01:37:55.363Z,0.00
2023-02-06T01:42:55.405Z,0.00
2023-02-06T01:47:55.282Z,0.00
2023-02-06T01:52:55.204Z,0.00
2023-02-06T01:57:55.122Z,0.00
2023-02-06T02:02:55.061Z,0.00
2023-02-06T02:07:55.039Z,0.00
2023-02-06T02:12:54.932Z,0.00
2023-02-06T02:17:54.894Z,0.00
2023-02-06T02:22:54.808Z,0.00
2023-02-06T02:27:54.790Z,0.00
2023-02-06T02:32:54.709Z,0.00
2023-02-06T02:37:54.652Z,0.00
2023-02-06T02:42:54.616Z,0.00
2023-02-06T02:47:54.487Z,0.00
2023-02-06T02:52:54.485Z,0.00
2023-02-06T02:57:54.370Z,0.00
2023-02-06T03:02:54.322Z,0.00
2023-02-06T03:07:54.595Z,0.00
2023-02-06T03:12:54.296Z,0.00
2023-02-06T03:17:54.252Z,0.00
2023-02-06T03:22:54.051Z,0.00
2023-02-06T03:27:54.399Z,0.00
2023-02-06T03:32:53.907Z,0.00
2023-02-06T03:37:53.845Z,0.00
2023-02-06T03:42:53.815Z,0.00
2023-02-06T03:47:53.701Z,0.00
2023-02-06T03:52:53.699Z,0.00
2023-02-06T03:57:53.574Z,0.00
2023-02-06T04:02:53.574Z,0.00
2023-02-06T04:07:53.554Z,0.00
2023-02-06T04:12:53.397Z,0.00
2023-02-06T04:18:00.580Z,0.00
2023-02-06T04:22:54.277Z,0.00
2023-02-06T04:27:53.322Z,0.00
2023-02-06T04:32:53.142Z,0.00
2023-02-06T04:37:53.090Z,0.00
2023-02-06T04:42:53.012Z,0.00
2023-02-06T04:47:53.007Z,0.00
2023-02-06T04:52:52.878Z,0.00
2023-02-06T04:57:52.890Z,0.00
2023-02-06T05:02:52.795Z,0.00
2023-02-06T05:07:52.747Z,0.00
2023-02-06T05:12:52.624Z,0.00
2023-02-06T05:17:52.557Z,0.00
2023-02-06T05:22:52.551Z,0.00
2023-02-06T05:27:52.515Z,0.00
2023-02-06T05:32:52.470Z,0.00
2023-02-06T05:37:52.315Z,0.00
2023-02-06T05:42:52.235Z,0.00
2023-02-06T05:47:52.170Z,0.00
2023-02-06T05:52:52.194Z,0.00
2023-02-06T05:57:52.063Z,0.00
2023-02-06T06:02:52.047Z,0.00
2023-02-06T06:07:51.965Z,4.00
2023-02-06T06:12:51.876Z,8.00
2023-02-06T06:17:51.814Z,16.00
2023-02-06T06:22:51.739Z,36.00
2023-02-06T06:27:51.735Z,68.00
2023-02-06T06:32:51.620Z,96.00
2023-02-06T06:37:51.556Z,124.00
2023-02-06T06:42:51.552Z,180.00
2023-02-06T06:47:51.481Z,256.00
2023-02-06T06:52:51.352Z,304.00
2023-02-06T06:57:51.304Z,344.00
2023-02-06T07:02:51.309Z,396.00
2023-02-06T07:07:51.147Z,500.00
2023-02-06T07:12:51.126Z,540.00
2023-02-06T07:17:51.006Z,740.00
2023-02-06T07:22:51.006Z,912.00
2023-02-06T07:27:50.931Z,856.00
2023-02-06T07:32:50.920Z,1016.00
2023-02-06T07:37:50.822Z,1512.00
2023-02-06T07:42:50.773Z,1856.00
2023-02-06T07:47:50.696Z,1992.00
2023-02-06T07:52:50.625Z,2156.00
2023-02-06T07:57:50.568Z,2200.00
2023-02-06T08:02:50.486Z,2252.00
2023-02-06T08:07:50.432Z,2344.00
2023-02-06T08:12:50.357Z,2364.00
2023-02-06T08:17:50.326Z,2364.00
2023-02-06T08:22:50.197Z,2380.00
2023-02-06T08:27:50.217Z,2468.00
2023-02-06T08:32:50.064Z,2528.00
2023-02-06T08:37:50.067Z,2468.00
2023-02-06T08:42:49.963Z,2496.00
2023-02-06T08:47:49.891Z,2652.00
2023-02-06T08:52:49.924Z,2832.00
2023-02-06T08:57:49.786Z,2952.00
2023-02-06T09:02:49.788Z,3072.00
2023-02-06T09:07:49.596Z,3232.00
2023-02-06T09:12:49.610Z,3564.00
2023-02-06T09:17:49.481Z,3728.00
2023-02-06T09:22:49.459Z,3440.00
2023-02-06T09:27:49.461Z,3396.00
2023-02-06T09:32:49.366Z,3768.00
2023-02-06T09:37:49.222Z,3592.00
2023-02-06T09:42:49.140Z,2992.00
2023-02-06T09:47:49.088Z,2864.00
2023-02-06T09:52:49.030Z,2944.00
2023-02-06T09:57:48.941Z,3076.00
2023-02-06T10:02:48.904Z,3432.00
2023-02-06T10:07:48.825Z,4088.00
2023-02-06T10:12:48.762Z,4612.00
2023-02-06T10:17:48.734Z,4972.00
2023-02-06T10:22:48.649Z,4668.00
2023-02-06T10:27:48.616Z,4880.00
2023-02-06T10:32:48.534Z,5012.00
2023-02-06T10:37:48.464Z,4600.00
2023-02-06T10:42:48.380Z,4840.00
2023-02-06T10:47:48.372Z,4828.00
2023-02-06T10:52:48.251Z,4780.00
2023-02-06T10:57:48.186Z,4504.00
2023-02-06T11:02:52.810Z,3628.00
2023-02-06T11:07:49.061Z,3196.00
2023-02-06T11:12:48.008Z,3700.00
2023-02-06T11:17:47.978Z,4204.00
2023-02-06T11:22:53.185Z,4300.00
2023-02-06T11:27:48.838Z,4768.00
2023-02-06T11:33:02.702Z,5080.00
2023-02-06T11:37:48.655Z,5408.00
2023-02-06T11:42:47.640Z,5724.00
2023-02-06T11:47:47.536Z,6004.00
2023-02-06T11:52:47.493Z,6504.00
2023-02-06T11:57:47.401Z,6604.00
2023-02-06T12:02:47.334Z,6288.00
2023-02-06T12:07:47.327Z,6216.00
2023-02-06T12:12:47.214Z,6260.00
2023-02-06T12:17:47.181Z,6048.00
2023-02-06T12:22:47.097Z,6276.00
2023-02-06T12:27:47.021Z,6040.00
2023-02-06T12:32:46.944Z,5436.00
2023-02-06T12:37:46.955Z,4560.00
2023-02-06T12:42:46.803Z,4556.00
2023-02-06T12:47:46.733Z,4120.00
2023-02-06T12:52:46.690Z,3240.00
2023-02-06T12:57:46.713Z,3420.00
2023-02-06T13:02:46.579Z,3784.00
2023-02-06T13:07:49.651Z,4320.00
2023-02-06T13:12:46.440Z,3988.00
2023-02-06T13:17:46.345Z,3392.00
2023-02-06T13:22:46.288Z,4004.00
2023-02-06T13:27:46.280Z,4432.00
2023-02-06T13:32:46.178Z,4188.00
2023-02-06T13:37:48.036Z,4216.00
2023-02-06T13:42:46.150Z,4284.00
2023-02-06T13:47:46.397Z,4216.00
2023-02-06T13:52:45.920Z,3724.00
2023-02-06T13:57:45.806Z,3336.00
2023-02-06T14:02:45.811Z,3268.00
2023-02-06T14:07:45.835Z,3584.00
2023-02-06T14:12:45.630Z,3720.00
2023-02-06T14:17:45.894Z,3468.00
2023-02-06T14:22:45.569Z,3208.00
2023-02-06T14:27:48.047Z,3136.00
2023-02-06T14:32:46.382Z,3120.00
2023-02-06T14:37:45.303Z,3036.00
2023-02-06T14:42:45.252Z,2864.00
2023-02-06T14:47:45.148Z,2832.00
2023-02-06T14:52:45.210Z,2848.00
2023-02-06T14:57:45.046Z,2716.00
2023-02-06T15:02:45.014Z,2560.00
2023-02-06T15:07:44.997Z,2408.00
2023-02-06T15:12:44.847Z,2260.00
2023-02-06T15:17:44.858Z,2092.00
2023-02-06T15:22:44.747Z,1912.00
2023-02-06T15:27:44.680Z,1736.00
2023-02-06T15:32:44.624Z,1532.00
2023-02-06T15:37:44.904Z,1288.00
2023-02-06T15:42:44.767Z,1024.00
2023-02-06T15:47:44.469Z,800.00
2023-02-06T15:52:44.317Z,624.00
2023-02-06T15:57:44.312Z,452.00
2023-02-06T16:02:44.244Z,304.00
2023-02-06T16:07:44.128Z,184.00
2023-02-06T16:12:44.347Z,100.00
2023-02-06T16:17:44.115Z,52.00
2023-02-06T16:22:43.969Z,20.00
2023-02-06T16:27:44.061Z,8.00
2023-02-06T16:32:43.897Z,4.00
2023-02-06T16:37:43.786Z,0.00
2023-02-06T16:42:43.770Z,0.00
2023-02-06T16:47:43.761Z,0.00
2023-02-06T16:52:43.695Z,0.00
2023-02-06T16:57:43.498Z,0.00
2023-02-06T17:02:44.407Z,0.00
2023-02-06T17:07:43.367Z,0.00
2023-02-06T17:12:43.536Z,0.00
2023-02-06T17:17:43.358Z,0.00
2023-02-06T17:22:43.245Z,0.00
2023-02-06T17:27:43.223Z,0.00
2023-02-06T17:32:43.120Z,0.00
2023-02-06T17:37:42.973Z,0.00
2023-02-06T17:42:43.068Z,0.00
2023-02-06T17:47:43.341Z,0.00
2023-02-06T17:52:42.852Z,0.00
2023-02-06T17:57:42.777Z,0.00
2023-02-06T18:02:42.787Z,0.00
2023-02-06T18:07:42.639Z,0.00
2023-02-06T18:12:42.568Z,0.00
2023-02-06T18:17:42.747Z,0.00
2023-02-06T18:22:42.766Z,0.00
2023-02-06T18:27:42.976Z,0.00
2023-02-06T18:32:42.424Z,0.00
2023-02-06T18:37:42.253Z,0.00
2023-02-06T18:42:42.668Z,0.00
2023-02-06T18:47:42.426Z,0.00
2023-02-06T18:52:42.223Z,0.00
2023-02-06T18:57:42.119Z,0.00
2023-02-06T19:02:41.870Z,0.00
2023-02-06T19:07:41.810Z,0.00
2023-02-06T19:12:41.839Z,0.00
2023-02-06T19:17:41.761Z,0.00
2023-02-06T19:22:41.641Z,0.00
2023-02-06T19:27:41.591Z,0.00
2023-02-06T19:32:41.659Z,0.00
2023-02-06T19:37:41.500Z,0.00
2023-02-06T19:42:41.502Z,0.00
2023-02-06T19:47:41.364Z,0.00
2023-02-06T19:52:44.732Z,0.00
2023-02-06T19:57:41.196Z,0.00
2023-02-06T20:02:41.128Z,0.00
2023-02-06T20:07:41.127Z,0.00
2023-02-06T20:12:41.079Z,0.00
2023-02-06T20:17:41.501Z,0.00
2023-02-06T20:22:40.953Z,0.00
2023-02-06T20:27:40.835Z,0.00
2023-02-06T20:32:40.965Z,0.00
2023-02-06T20:37:40.830Z,0.00
2023-02-06T20:42:40.600Z,0.00
2023-02-06T20:47:40.553Z,0.00
2023-02-06T20:52:41.350Z,0.00
2023-02-06T20:57:40.581Z,0.00
2023-02-06T21:02:40.486Z,0.00
2023-02-06T21:07:40.303Z,0.00
2023-02-06T21:12:40.437Z,0.00
2023-02-06T21:17:40.240Z,0.00
2023-02-06T21:22:40.220Z,0.00
2023-02-06T21:27:40.066Z,0.00
2023-02-06T21:32:40.002Z,0.00
2023-02-06T21:37:39.927Z,0.00
2023-02-06T21:42:39.899Z,0.00
2023-02-06T21:47:39.845Z,0.00
2023-02-06T21:52:39.801Z,0.00
2023-02-06T21:57:39.678Z,0.00
2023-02-06T22:02:39.718Z,0.00
2023-02-06T22:07:39.570Z,0.00
2023-02-06T22:12:40.468Z,0.00
2023-02-06T22:17:39.615Z,0.00
2023-02-06T22:22:39.354Z,0.00
2023-02-06T22:27:39.343Z,0.00
2023-02-06T22:32:40.895Z,0.00
2023-02-06T22:37:39.139Z,0.00
2023-02-06T22:42:39.113Z,0.00
2023-02-06T22:47:39.029Z,0.00
2023-02-06T22:52:39.185Z,0.00
2023-02-06T22:57:38.909Z,0.00
2023-02-06T23:02:38.932Z,0.00
2023-02-06T23:07:39.009Z,0.00
2023-02-06T23:12:38.768Z,0.00
2023-02-06T23:17:38.663Z,0.00
2023-02-06T23:22:38.674Z,0.00
2023-02-06T23:27:38.527Z,0.00
2023-02-06T23:32:38.664Z,0.00
2023-02-06T23:37:38.402Z,0.00
2023-02-06T23:42:38.289Z,0.00
2023-02-06T23:47:38.373Z,0.00
2023-02-06T23:52:38.354Z,0.00
2023-02-06T23:57:38.127Z,0.00
